Time;durP1;ratioP1;P1;durP2;ratioP2;P2;SDS_P1;SDS_P2;PMS_P1;PMS_P2;Temp;Humidity;BMP_temperature;BMP_pressure;BME280_temperature;BME280_humidity;BME280_pressure;Samples;Min_cycle;Max_cycle;Signal;HPM_P1;HPM_P2
2021/12/11 00:01:53;;;;;;;;;0.00;0.00;;;;;21.69;34.97;101019.19;5031486;28;45378;-75
2021/12/11 00:04:29;;;;;;;;;1.25;1.00;;;;;21.76;34.83;101029.88;5032037;27;45452;-75
2021/12/11 00:06:57;;;;;;;;;2.00;0.25;;;;;21.76;35.01;101029.06;5031459;28;45535;-76
2021/12/11 00:09:28;;;;;;;;;3.75;1.00;;;;;21.61;35.08;101014.75;5031493;28;47779;-74
2021/12/11 00:12:01;;;;;;;;;0.00;0.00;;;;;21.70;35.10;101033.25;5030062;27;45457;-76
2021/12/11 00:14:31;;;;;;;;;0.00;0.00;;;;;21.40;34.55;100995.00;5032437;28;45754;-75
2021/12/11 00:16:57;;;;;;;;;1.50;0.50;;;;;21.74;34.70;101053.09;5033695;28;45350;-75
2021/12/11 00:19:26;;;;;;;;;0.00;0.00;;;;;21.74;34.42;101055.72;5031305;28;45599;-76
2021/12/11 00:21:58;;;;;;;;;0.00;0.00;;;;;21.73;34.51;101065.50;5031395;27;45354;-74
2021/12/11 00:24:26;;;;;;;;;2.00;1.00;;;;;21.63;34.56;101049.00;5031555;28;45503;-75
2021/12/11 00:26:59;;;;;;;;;0.75;0.00;;;;;21.74;34.70;101074.28;5029755;27;45431;-75
2021/12/11 00:29:27;;;;;;;;;1.00;1.00;;;;;21.74;34.95;101079.56;5032419;28;46264;-75
2021/12/11 00:31:59;;;;;;;;;1.25;1.00;;;;;21.70;34.28;101065.03;5032813;28;45461;-75
2021/12/11 00:34:26;;;;;;;;;0.00;0.00;;;;;21.74;34.73;101079.56;5031335;27;45337;-75
2021/12/11 00:37:07;;;;;;;;;0.00;0.00;;;;;21.71;34.38;101072.78;5031465;27;45446;-75
2021/12/11 00:39:38;;;;;;;;;2.00;0.00;;;;;21.74;34.46;101079.56;5031028;28;45406;-75
2021/12/11 00:42:12;;;;;;;;;0.00;0.00;;;;;21.72;34.44;101076.28;5031048;28;45464;-74
2021/12/11 00:44:50;;;;;;;;;1.75;1.00;;;;;21.52;34.30;101047.53;5031252;28;45453;-76
2021/12/11 00:47:29;;;;;;;;;1.00;1.00;;;;;21.74;34.76;101084.88;5029613;28;45481;-74
2021/12/11 00:50:09;;;;;;;;;3.00;0.00;;;;;21.74;34.42;101088.34;5032812;27;46565;-76
2021/12/11 00:52:42;;;;;;;;;1.00;1.00;;;;;21.74;34.51;101092.81;5030170;27;45410;-75
2021/12/11 00:55:18;;;;;;;;;2.50;1.00;;;;;21.76;34.62;101100.56;5030579;28;45525;-75
2021/12/11 00:57:45;;;;;;;;;1.00;1.00;;;;;21.70;34.78;101102.09;5031022;28;45472;-75
2021/12/11 01:00:21;;;;;;;;;1.00;1.00;;;;;21.74;34.84;101111.34;5031015;27;46474;-76
2021/12/11 01:02:52;;;;;;;;;2.25;0.00;;;;;21.65;34.45;101099.94;5014133;28;45571;-76
2021/12/11 01:05:19;;;;;;;;;0.50;0.50;;;;;21.63;34.37;101109.88;5028712;28;45414;-75
2021/12/11 01:07:45;;;;;;;;;1.00;1.00;;;;;21.67;35.03;101111.22;5029010;28;45722;-76
2021/12/11 01:10:22;;;;;;;;;0.00;0.00;;;;;21.72;34.95;101132.72;5030790;27;46690;-75
2021/12/11 01:12:56;;;;;;;;;1.00;1.00;;;;;21.68;34.98;101127.91;5030817;28;45232;-76
2021/12/11 01:15:25;;;;;;;;;1.50;0.00;;;;;21.71;34.57;101135.50;5030863;28;45412;-76
2021/12/11 01:18:11;;;;;;;;;0.75;0.00;;;;;21.48;34.76;101097.38;5030395;28;45378;-72
2021/12/11 01:20:54;;;;;;;;;1.00;1.00;;;;;21.70;34.82;101144.47;5020635;27;46127;-74
2021/12/11 01:23:55;;;;;;;;;1.00;1.00;;;;;21.70;34.53;101141.81;5020287;28;45516;-74
2021/12/11 01:26:21;;;;;;;;;1.00;0.50;;;;;21.66;34.84;101138.69;5023855;27;45311;-75
2021/12/11 01:28:48;;;;;;;;;2.00;0.00;;;;;21.60;34.83;101132.25;5023141;28;45447;-75
2021/12/11 01:31:16;;;;;;;;;1.75;1.00;;;;;21.70;34.81;101147.94;5018874;28;47903;-74
2021/12/11 01:33:42;;;;;;;;;1.75;1.00;;;;;21.70;34.49;101152.41;5022717;27;46248;-73
2021/12/11 01:36:09;;;;;;;;;0.75;0.00;;;;;21.69;35.10;101164.00;5023407;27;45417;-73
2021/12/11 01:38:35;;;;;;;;;2.00;2.00;;;;;21.67;35.22;101168.63;5033376;27;45493;-72
2021/12/11 01:41:16;;;;;;;;;0.67;0.33;;;;;21.63;34.97;101168.16;5023749;27;47045;-72
2021/12/11 01:43:43;;;;;;;;;0.00;0.00;;;;;21.51;35.11;101163.22;5029713;27;45498;-73
2021/12/11 01:46:09;;;;;;;;;4.25;1.00;;;;;21.58;35.13;101173.94;5020150;27;45496;-72
2021/12/11 01:48:39;;;;;;;;;1.00;1.00;;;;;21.55;35.28;101181.41;5034807;27;45429;-72
2021/12/11 01:51:11;;;;;;;;;0.00;0.00;;;;;21.55;35.24;101189.34;5017401;27;48437;-72
2021/12/11 01:53:41;;;;;;;;;0.25;0.25;;;;;21.52;35.29;101193.16;5040005;27;45594;-72
2021/12/11 01:56:11;;;;;;;;;0.00;0.00;;;;;21.52;34.97;101201.91;5054687;27;45626;-72
2021/12/11 01:58:44;;;;;;;;;2.00;1.00;;;;;21.53;34.97;101205.41;5017290;27;45445;-72
2021/12/11 02:01:16;;;;;;;;;0.50;0.50;;;;;21.51;35.11;101210.03;5027582;27;48349;-72
2021/12/11 02:03:43;;;;;;;;;0.25;0.25;;;;;;;;5024470;28;45472;-73
2021/12/11 02:06:09;;;;;;;;;1.00;1.00;;;;;21.57;34.94;101217.28;5027137;28;45359;-72
2021/12/11 02:08:37;;;;;;;;;2.50;1.00;;;;;21.61;35.55;101223.94;5029723;27;45560;-72
2021/12/11 02:11:09;;;;;;;;;0.00;0.00;;;;;21.64;35.13;101217.47;5016692;27;46165;-72
2021/12/11 02:13:47;;;;;;;;;2.00;1.00;;;;;21.64;35.36;101222.78;5018279;28;45817;-72
2021/12/11 02:16:27;;;;;;;;;2.00;1.00;;;;;21.68;35.17;101225.88;5020212;28;45239;-72
2021/12/11 02:19:03;;;;;;;;;0.25;0.25;;;;;21.56;34.88;101204.25;5020184;27;45324;-73
2021/12/11 02:21:36;;;;;;;;;0.00;0.00;;;;;21.71;35.01;101233.50;5019868;27;46275;-72
2021/12/11 02:24:07;;;;;;;;;1.00;1.00;;;;;21.71;34.74;101230.84;5017207;28;45589;-72
2021/12/11 02:26:36;;;;;;;;;2.00;1.00;;;;;21.64;34.74;101225.41;5017445;28;45642;-72
2021/12/11 02:29:07;;;;;;;;;3.25;2.00;;;;;21.71;35.10;101239.63;5019703;28;45759;-72
2021/12/11 02:31:49;;;;;;;;;1.75;0.75;;;;;21.69;34.80;101235.50;5019812;28;46178;-72
2021/12/11 02:34:21;;;;;;;;;2.00;0.50;;;;;21.63;35.06;101226.41;5020134;27;45507;-72
2021/12/11 02:37:07;;;;;;;;;0.50;0.50;;;;;21.71;34.93;101247.56;5019777;28;46297;-72
2021/12/11 02:39:39;;;;;;;;;1.00;1.00;;;;;21.56;34.88;101231.53;5019883;28;45489;-72
2021/12/11 02:42:16;;;;;;;;;2.00;2.00;;;;;21.71;35.15;101255.53;5017996;28;46211;-72
2021/12/11 02:44:47;;;;;;;;;0.75;0.50;;;;;21.71;34.86;101257.34;5032963;28;45877;-72
2021/12/11 02:47:19;;;;;;;;;0.25;0.25;;;;;21.71;35.08;101260.81;5030565;28;45303;-72
2021/12/11 02:49:51;;;;;;;;;0.25;0.00;;;;;21.70;34.58;101253.06;5030737;28;45333;-72
2021/12/11 02:52:26;;;;;;;;;1.00;1.00;;;;;21.69;34.82;101264.63;5032014;27;46188;-72
2021/12/11 02:55:09;;;;;;;;;1.00;1.00;;;;;21.61;34.42;101244.28;5032493;28;45519;-72
2021/12/11 02:57:42;;;;;;;;;0.75;0.00;;;;;21.66;34.61;101257.00;5032785;27;45177;-72
2021/12/11 03:00:12;;;;;;;;;0.25;0.25;;;;;21.69;34.68;101273.41;5032646;27;45457;-72
2021/12/11 03:02:44;;;;;;;;;1.25;1.00;;;;;21.69;34.65;101276.06;5032414;27;46509;-72
2021/12/11 03:05:12;;;;;;;;;1.50;1.00;;;;;21.69;34.64;101277.88;5034095;28;45352;-72
2021/12/11 03:07:43;;;;;;;;;1.50;1.50;;;;;21.69;34.92;101280.50;5032016;28;45437;-72
2021/12/11 03:10:14;;;;;;;;;0.25;0.25;;;;;21.68;34.72;101273.56;5030989;28;45473;-72
2021/12/11 03:12:43;;;;;;;;;1.00;1.00;;;;;21.68;34.78;101282.34;5032303;27;46139;-72
2021/12/11 03:15:09;;;;;;;;;1.00;1.00;;;;;21.67;34.51;101286.00;5032311;28;45269;-72
2021/12/11 03:17:36;;;;;;;;;1.00;1.00;;;;;21.67;34.77;101285.16;5032424;28;45580;-73
2021/12/11 03:20:03;;;;;;;;;0.75;0.75;;;;;21.63;34.39;101277.53;5034493;28;45379;-72
2021/12/11 03:22:33;;;;;;;;;0.25;0.25;;;;;21.67;34.31;101291.28;5031576;27;46407;-72
2021/12/11 03:25:07;;;;;;;;;1.50;1.50;;;;;21.66;34.50;101292.28;5030631;28;45369;-72
2021/12/11 03:27:32;;;;;;;;;1.00;1.00;;;;;21.58;34.41;101279.03;5031088;28;45559;-72
2021/12/11 03:29:59;;;;;;;;;0.25;0.00;;;;;21.59;34.32;101288.63;5032271;28;45352;-73
2021/12/11 03:32:24;;;;;;;;;1.00;1.00;;;;;21.66;34.50;101299.38;5033353;27;46343;-73
2021/12/11 03:34:50;;;;;;;;;2.00;1.00;;;;;21.66;34.46;101304.69;5032637;28;46363;-73
2021/12/11 03:37:18;;;;;;;;;2.00;1.00;;;;;21.61;34.72;101291.94;5032303;27;45563;-72
2021/12/11 03:39:47;;;;;;;;;2.33;1.33;;;;;21.63;34.79;101304.03;5032063;27;45349;-72
2021/12/11 03:42:28;;;;;;;;;3.00;1.50;;;;;21.64;34.61;101294.25;5030665;27;47009;-72
2021/12/11 03:44:53;;;;;;;;;2.25;1.75;;;;;21.57;34.26;101287.97;5015765;28;45480;-72
2021/12/11 03:47:42;;;;;;;;;3.25;1.25;;;;;21.65;34.59;101303.03;5033711;28;45445;-71
2021/12/11 03:50:12;;;;;;;;;0.00;0.00;;;;;21.65;34.40;101303.03;5033938;27;45347;-72
2021/12/11 03:52:39;;;;;;;;;1.00;1.00;;;;;21.58;34.36;101293.09;5031771;28;46414;-73
2021/12/11 03:55:05;;;;;;;;;2.00;1.00;;;;;21.52;34.39;101280.50;5031621;28;45431;-71
2021/12/11 03:57:30;;;;;;;;;2.00;2.00;;;;;21.64;34.21;101299.56;5031855;28;45353;-73
2021/12/11 03:59:56;;;;;;;;;0.75;0.75;;;;;21.62;34.56;101307.66;5031907;28;45339;-72
2021/12/11 04:02:26;;;;;;;;;0.00;0.00;;;;;21.65;34.33;101313.63;5033134;28;46865;-72
2021/12/11 04:04:55;;;;;;;;;1.00;1.00;;;;;21.65;34.77;101321.56;5033376;27;45545;-72
2021/12/11 04:07:29;;;;;;;;;1.00;0.00;;;;;21.64;34.40;101320.75;5030612;27;45527;-73
2021/12/11 04:09:55;;;;;;;;;1.00;1.00;;;;;21.61;34.46;101329.84;5031696;27;45513;-73
2021/12/11 04:12:21;;;;;;;;;0.00;0.00;;;;;21.64;34.04;101328.69;5031522;28;45338;-72
2021/12/11 04:14:49;;;;;;;;;2.00;2.00;;;;;21.63;34.23;101343.75;5031692;28;45541;-71
2021/12/11 04:17:18;;;;;;;;;2.00;0.00;;;;;21.60;34.15;101337.94;5029613;28;45263;-72
2021/12/11 04:19:45;;;;;;;;;1.00;1.00;;;;;21.63;34.12;101342.91;5031126;28;45386;-72
2021/12/11 04:22:11;;;;;;;;;0.50;0.50;;;;;21.63;34.56;101345.56;5029868;28;46310;-71
2021/12/11 04:24:39;;;;;;;;;4.00;3.00;;;;;21.62;34.40;101342.06;5031517;27;45513;-72
2021/12/11 04:27:08;;;;;;;;;1.00;1.00;;;;;21.61;34.31;101342.25;5031040;28;45445;-72
2021/12/11 04:29:34;;;;;;;;;1.00;1.00;;;;;21.62;34.40;101350.03;5031461;28;45362;-72
2021/12/11 04:32:02;;;;;;;;;0.00;0.00;;;;;21.62;34.56;101352.66;5033502;28;45373;-72
2021/12/11 04:34:30;;;;;;;;;0.00;0.00;;;;;21.62;34.64;101351.88;5030833;28;45263;-72
2021/12/11 04:37:03;;;;;;;;;2.50;1.00;;;;;21.62;34.37;101354.50;5031023;28;45292;-72
2021/12/11 04:39:35;;;;;;;;;1.00;1.00;;;;;21.51;34.19;101351.19;5031085;28;45491;-72
2021/12/11 04:42:10;;;;;;;;;2.50;1.00;;;;;21.52;34.16;101349.34;5031315;28;46053;-72
2021/12/11 04:44:40;;;;;;;;;1.25;1.00;;;;;21.52;34.67;101347.53;5031686;28;45416;-72
2021/12/11 04:47:18;;;;;;;;;0.00;0.00;;;;;21.59;34.31;101363.63;5032164;28;45292;-71
2021/12/11 04:49:56;;;;;;;;;1.00;1.00;;;;;21.60;34.31;101362.59;5029313;28;45347;-72
2021/12/11 04:52:34;;;;;;;;;0.75;0.75;;;;;21.57;34.31;101360.28;5031149;27;45476;-72
2021/12/11 04:55:25;;;;;;;;;0.75;0.50;;;;;21.58;33.96;101361.94;5030874;28;45393;-72
2021/12/11 05:08:48;;;;;;;;;0.50;0.50;;;;;21.45;34.56;101380.97;5033124;28;45256;-72
2021/12/11 05:11:05;;;;;;;;;1.75;1.00;;;;;21.58;34.32;101401.66;5031522;27;45565;-72
2021/12/11 05:13:31;;;;;;;;;1.25;1.25;;;;;21.50;34.42;101386.59;5030579;28;47200;-70
2021/12/11 05:15:59;;;;;;;;;0.50;0.50;;;;;21.58;34.17;101396.38;5030698;27;45691;-72
2021/12/11 05:18:28;;;;;;;;;1.75;1.75;;;;;21.52;34.56;101389.91;5030752;27;45294;-72
2021/12/11 05:20:59;;;;;;;;;1.50;1.50;;;;;21.58;34.02;101403.47;5030685;27;45403;-72
2021/12/11 05:23:25;;;;;;;;;2.00;0.75;;;;;21.27;34.43;101366.03;5032097;27;46162;-72
2021/12/11 05:25:51;;;;;;;;;1.00;1.00;;;;;21.59;34.08;101413.94;5029915;28;45362;-72
2021/12/11 05:28:17;;;;;;;;;3.50;0.50;;;;;21.58;34.54;101422.00;5031007;28;45552;-72
2021/12/11 05:30:47;;;;;;;;;2.00;0.25;;;;;21.50;34.14;101406.94;5030373;28;45550;-72
2021/12/11 05:33:13;;;;;;;;;1.00;1.00;;;;;21.58;34.15;101414.91;5030646;27;47373;-72
2021/12/11 05:35:40;;;;;;;;;1.00;0.00;;;;;21.59;34.12;101424.50;5030511;28;45477;-72
2021/12/11 05:38:08;;;;;;;;;0.00;0.00;;;;;21.58;34.26;101435.25;5032852;27;45455;-72
2021/12/11 05:40:38;;;;;;;;;2.00;1.00;;;;;21.52;33.99;101426.13;5029056;28;45439;-72
2021/12/11 05:43:05;;;;;;;;;1.00;1.00;;;;;21.58;34.11;101451.13;5030357;28;46124;-72
2021/12/11 05:45:30;;;;;;;;;3.00;2.00;;;;;21.55;34.05;101447.00;5029909;28;45335;-72
2021/12/11 05:47:57;;;;;;;;;2.00;0.00;;;;;21.49;33.98;101447.66;5029797;28;45288;-72
2021/12/11 05:50:31;;;;;;;;;0.00;0.00;;;;;21.51;33.95;101457.09;5031881;28;45310;-72
2021/12/11 05:52:56;;;;;;;;;2.75;1.00;;;;;21.51;34.30;101462.41;5032079;28;46269;-72
2021/12/11 05:55:24;;;;;;;;;4.00;1.00;;;;;21.59;33.97;101474.81;5030094;28;47223;-72
2021/12/11 05:57:54;;;;;;;;;3.50;1.75;;;;;21.50;34.31;101457.25;5030380;28;45345;-72
2021/12/11 06:00:27;;;;;;;;;1.00;0.00;;;;;21.54;33.76;101448.00;5028448;28;45265;-72
2021/12/11 06:02:53;;;;;;;;;1.00;1.00;;;;;21.57;34.24;101452.16;5014042;28;46391;-72
2021/12/11 06:05:18;;;;;;;;;1.00;1.00;;;;;21.58;34.21;101457.28;5031737;27;45402;-72
2021/12/11 06:07:44;;;;;;;;;1.00;1.00;;;;;21.59;34.26;101466.06;5030758;28;45471;-72
2021/12/11 06:10:14;;;;;;;;;3.00;1.00;;;;;21.58;34.20;101465.22;5030025;27;45512;-72
2021/12/11 06:12:41;;;;;;;;;2.00;2.00;;;;;21.58;34.24;101473.16;5029918;28;46341;-72
2021/12/11 06:15:08;;;;;;;;;2.00;2.00;;;;;21.58;33.95;101470.50;5029654;27;45429;-72
2021/12/11 06:17:34;;;;;;;;;0.75;0.75;;;;;21.58;33.87;101461.72;5030668;28;45303;-72
2021/12/11 06:20:03;;;;;;;;;1.50;0.00;;;;;21.58;33.97;101472.31;5030227;28;45301;-72
2021/12/11 06:22:32;;;;;;;;;0.75;0.75;;;;;21.56;33.79;101461.06;5029360;27;46356;-72
2021/12/11 06:25:03;;;;;;;;;1.00;1.00;;;;;21.47;34.19;101460.22;5029632;28;45517;-72
2021/12/11 06:27:29;;;;;;;;;0.00;0.00;;;;;21.56;33.85;101483.09;5029776;28;45473;-72
2021/12/11 06:29:55;;;;;;;;;2.00;1.00;;;;;21.52;34.29;101477.28;5029632;27;45487;-73
2021/12/11 06:32:23;;;;;;;;;1.00;1.00;;;;;21.56;33.86;101479.59;5030823;28;46201;-72
2021/12/11 06:34:49;;;;;;;;;1.00;1.00;;;;;21.56;34.21;101477.78;5030374;28;45309;-72
2021/12/11 06:37:16;;;;;;;;;0.75;0.75;;;;;21.55;33.80;101480.59;5029594;27;45562;-73
2021/12/11 06:39:42;;;;;;;;;1.00;1.00;;;;;21.55;33.78;101492.00;5029470;28;45297;-72
2021/12/11 06:42:09;;;;;;;;;2.00;1.00;;;;;21.56;34.43;101493.69;5028257;28;46226;-73
2021/12/11 06:44:36;;;;;;;;;1.75;0.50;;;;;21.46;33.95;101485.88;5029147;28;45466;-72
2021/12/11 06:47:04;;;;;;;;;1.50;0.25;;;;;21.55;33.92;101505.25;5031721;27;46247;-72
2021/12/11 06:49:32;;;;;;;;;0.00;0.00;;;;;21.56;34.34;101516.66;5029334;28;45293;-72
2021/12/11 06:51:58;;;;;;;;;1.00;1.00;;;;;21.50;34.05;101510.19;5029209;28;47524;-72
2021/12/11 06:54:25;;;;;;;;;3.25;1.50;;;;;21.45;33.72;101504.56;5029234;27;45518;-72
2021/12/11 06:56:52;;;;;;;;;2.25;0.50;;;;;21.54;33.95;101521.31;5028126;28;45357;-72
2021/12/11 06:59:18;;;;;;;;;2.00;1.00;;;;;21.54;34.12;101524.78;5031000;28;45257;-72
2021/12/11 07:01:44;;;;;;;;;1.00;1.00;;;;;21.52;33.89;101534.69;5032244;28;45314;-72
2021/12/11 07:04:11;;;;;;;;;2.00;0.50;;;;;21.48;34.37;101539.50;5032325;28;45599;-72
2021/12/11 07:06:43;;;;;;;;;1.00;1.00;;;;;21.53;34.23;101544.31;5032423;28;45251;-72
2021/12/11 07:09:11;;;;;;;;;2.00;1.00;;;;;21.52;33.72;101548.75;5032454;28;45525;-72
2021/12/11 07:11:39;;;;;;;;;1.00;1.00;;;;;21.53;33.80;101554.88;5032278;28;46217;-72
2021/12/11 07:14:06;;;;;;;;;1.00;1.00;;;;;21.50;33.68;101558.69;5033947;28;45358;-78
2021/12/11 07:16:31;;;;;;;;;1.25;1.25;;;;;21.43;34.29;101547.09;5020643;27;45374;-76
2021/12/11 07:18:57;;;;;;;;;1.00;1.00;;;;;21.52;33.87;101563.81;5032504;28;45523;-73
2021/12/11 07:21:22;;;;;;;;;0.25;0.25;;;;;21.49;33.81;101558.84;5030828;28;47182;-73
2021/12/11 07:23:49;;;;;;;;;2.00;1.00;;;;;21.53;33.91;101568.13;5032341;27;45447;-73
2021/12/11 07:26:31;;;;;;;;;0.25;0.25;;;;;21.51;33.99;101572.75;5030273;28;45334;-73
2021/12/11 07:29:07;;;;;;;;;1.00;1.00;;;;;21.42;34.10;101558.66;5033910;28;45639;-78
2021/12/11 07:31:33;;;;;;;;;1.00;1.00;;;;;21.23;34.15;101530.63;5031994;28;46478;-77
2021/12/11 07:33:59;;;;;;;;;1.00;1.00;;;;;21.40;33.87;101566.75;5032029;28;45424;-81
2021/12/11 07:36:26;;;;;;;;;0.50;0.50;;;;;21.45;34.02;101570.72;5030801;27;45459;-73
2021/12/11 07:38:52;;;;;;;;;1.25;1.00;;;;;21.52;33.66;101575.25;5030783;27;45381;-72
2021/12/11 07:41:18;;;;;;;;;1.25;1.00;;;;;21.51;34.21;101565.66;5065001;27;48196;-73
2021/12/11 07:43:46;;;;;;;;;2.00;1.00;;;;;21.50;34.44;101563.97;5061379;27;45426;-72
2021/12/11 07:46:14;;;;;;;;;3.00;1.00;;;;;21.52;34.25;101572.59;5039595;28;45451;-74
2021/12/11 07:48:40;;;;;;;;;1.75;1.00;;;;;21.54;34.41;101579.56;5075996;27;45511;-73
2021/12/11 07:51:07;;;;;;;;;3.75;2.00;;;;;21.55;34.63;101594.44;5056963;27;45451;-72
2021/12/11 07:53:33;;;;;;;;;1.00;1.00;;;;;21.40;35.11;101572.06;5031966;28;45526;-74
2021/12/11 07:55:59;;;;;;;;;0.75;0.00;;;;;21.54;34.98;101596.28;5032911;28;45544;-72
2021/12/11 07:58:24;;;;;;;;;1.50;0.50;;;;;21.51;34.83;101596.59;5031603;28;45566;-72
2021/12/11 08:00:50;;;;;;;;;4.75;2.50;;;;;21.55;35.13;101608.50;5030336;28;45986;-72
2021/12/11 08:03:18;;;;;;;;;2.75;1.00;;;;;21.58;35.09;101617.97;5032052;27;45547;-73
2021/12/11 08:05:46;;;;;;;;;3.00;1.25;;;;;21.52;34.54;101614.13;5029394;28;45518;-74
2021/12/11 08:08:12;;;;;;;;;3.00;1.00;;;;;21.56;35.24;101623.44;5033301;27;45582;-74
2021/12/11 08:10:42;;;;;;;;;2.00;1.00;;;;;21.61;34.82;101629.06;5030674;28;45901;-74
2021/12/11 08:13:10;;;;;;;;;1.00;1.00;;;;;21.63;34.84;101639.50;5031459;28;45438;-73
2021/12/11 08:15:37;;;;;;;;;1.00;0.25;;;;;21.62;35.18;101641.31;5030162;27;45504;-73
2021/12/11 08:18:06;;;;;;;;;2.25;1.50;;;;;21.60;34.97;101637.16;5032045;28;45345;-73
2021/12/11 08:20:36;;;;;;;;;1.00;1.00;;;;;21.62;34.90;101637.84;5031417;28;47886;-74
2021/12/11 08:23:02;;;;;;;;;2.00;2.00;;;;;21.62;35.12;101643.16;5033789;28;45502;-73
2021/12/11 08:25:31;;;;;;;;;2.75;1.75;;;;;21.61;34.99;101644.97;5031254;27;45504;-74
2021/12/11 08:27:57;;;;;;;;;2.00;1.00;;;;;21.60;35.16;101645.94;5031494;27;45388;-74
2021/12/11 08:30:26;;;;;;;;;2.75;1.25;;;;;21.60;35.08;101642.47;5031559;28;47291;-74
2021/12/11 08:32:51;;;;;;;;;1.25;1.00;;;;;21.59;35.02;101638.16;5031447;27;46019;-74
2021/12/11 08:35:16;;;;;;;;;2.25;2.00;;;;;21.59;35.07;101644.31;5033846;28;45480;-73
2021/12/11 08:37:45;;;;;;;;;1.00;1.00;;;;;21.59;35.40;101644.31;5031505;28;45735;-73
2021/12/11 08:40:17;;;;;;;;;2.50;2.00;;;;;21.45;35.26;101627.16;5025401;27;46160;-73
2021/12/11 08:42:43;;;;;;;;;2.50;2.00;;;;;21.57;35.17;101648.09;5031254;28;45327;-74
2021/12/11 08:45:13;;;;;;;;;2.00;2.00;;;;;21.44;35.35;101633.47;5031389;28;45456;-73
2021/12/11 08:47:41;;;;;;;;;2.50;2.50;;;;;21.52;35.30;101644.09;5031317;28;45298;-73
2021/12/11 08:50:11;;;;;;;;;1.50;0.75;;;;;21.56;34.82;101652.56;5033349;27;45469;-73
2021/12/11 08:52:41;;;;;;;;;1.25;1.25;;;;;21.56;34.82;101662.31;5031086;28;45362;-73
2021/12/11 08:55:12;;;;;;;;;2.25;1.00;;;;;21.55;35.11;101672.06;5029564;28;45359;-74
2021/12/11 08:57:39;;;;;;;;;1.00;1.00;;;;;21.52;34.99;101661.78;5031114;28;45315;-73
2021/12/11 09:00:25;;;;;;;;;2.00;2.00;;;;;21.54;35.32;101670.41;5031271;28;45553;-73
2021/12/11 09:02:57;;;;;;;;;2.25;2.00;;;;;21.54;35.32;101681.00;5014513;28;45502;-74
2021/12/11 09:05:52;;;;;;;;;2.00;2.00;;;;;21.54;35.04;101682.81;5032627;28;45382;-73
2021/12/11 09:08:32;;;;;;;;;1.75;1.00;;;;;21.42;35.31;101667.19;5029229;28;45230;-73
2021/12/11 09:11:09;;;;;;;;;3.00;2.00;;;;;21.55;35.21;101687.13;5030607;28;46237;-73
2021/12/11 09:13:45;;;;;;;;;2.75;2.75;;;;;21.55;35.24;101685.31;5030782;28;45372;-73
2021/12/11 09:16:18;;;;;;;;;1.00;1.00;;;;;21.55;34.86;101697.72;5030933;28;45498;-73
2021/12/11 09:18:50;;;;;;;;;2.25;2.25;;;;;21.54;35.17;101699.53;5029946;27;45503;-73
2021/12/11 09:21:27;;;;;;;;;2.00;2.00;;;;;21.54;35.27;101707.50;5030567;27;46004;-73
2021/12/11 09:24:04;;;;;;;;;3.00;2.00;;;;;21.56;35.12;101704.69;5014187;28;45354;-73
2021/12/11 09:26:42;;;;;;;;;2.00;2.00;;;;;21.56;35.01;101707.31;5031342;28;45425;-74
2021/12/11 09:29:37;;;;;;;;;4.50;3.00;;;;;21.56;35.01;101716.09;5032859;28;45474;-74
2021/12/11 09:32:16;;;;;;;;;3.50;2.00;;;;;21.57;35.15;101724.88;5033308;27;45333;-74
2021/12/11 09:34:52;;;;;;;;;1.00;1.00;;;;;21.42;34.87;101690.22;5029100;28;45430;-74
2021/12/11 09:37:18;;;;;;;;;2.00;2.00;;;;;21.33;35.17;101690.16;5030240;28;45280;-73
2021/12/11 09:39:49;;;;;;;;;3.75;3.75;;;;;21.56;34.81;101729.34;5029141;28;45572;-73
2021/12/11 09:42:14;;;;;;;;;2.25;2.00;;;;;21.57;34.86;101740.78;5030469;28;46229;-73
2021/12/11 09:44:52;;;;;;;;;4.00;3.00;;;;;21.44;34.91;101714.69;5030412;28;45305;-73
2021/12/11 09:47:41;;;;;;;;;3.75;2.25;;;;;21.54;34.99;101733.97;5029012;28;45573;-74
2021/12/11 09:50:17;;;;;;;;;1.00;1.00;;;;;21.57;34.89;101743.41;5031559;28;45336;-73
2021/12/11 09:52:46;;;;;;;;;2.75;2.75;;;;;21.47;34.99;101732.91;5030012;27;45452;-73
2021/12/11 09:55:20;;;;;;;;;4.25;3.25;;;;;21.58;35.33;101760.94;5031191;27;45263;-73
2021/12/11 09:57:50;;;;;;;;;3.00;3.00;;;;;21.48;35.05;101750.47;5029336;28;45312;-73
2021/12/11 10:00:24;;;;;;;;;2.50;2.00;;;;;21.57;34.74;101764.59;5030299;28;45437;-73
2021/12/11 10:02:50;;;;;;;;;1.00;1.00;;;;;21.54;35.10;101763.09;5013239;28;46347;-74
2021/12/11 10:05:37;;;;;;;;;1.00;1.00;;;;;21.57;35.19;101765.41;5031702;28;45406;-73
2021/12/11 10:11:27;;;;;;;;;3.00;3.00;;;;;21.57;34.65;101769.91;5007873;28;45380;-73
2021/12/11 10:13:57;;;;;;;;;2.75;2.75;;;;;21.56;34.60;101771.72;5009912;27;46286;-74
2021/12/11 10:16:27;;;;;;;;;3.75;2.25;;;;;21.54;34.82;101762.25;5007741;27;45520;-73
2021/12/11 10:18:53;;;;;;;;;5.00;3.25;;;;;21.57;35.06;101775.19;5007757;28;45450;-73
2021/12/11 10:21:36;;;;;;;;;3.50;2.75;;;;;21.57;34.72;101781.31;5054029;27;45546;-74
2021/12/11 10:24:09;;;;;;;;;4.00;2.25;;;;;21.25;34.91;101735.91;5112043;27;46441;-73
2021/12/11 10:26:35;;;;;;;;;2.50;2.50;;;;;21.57;34.95;101786.59;5111586;27;45479;-73
2021/12/11 10:29:09;;;;;;;;;3.00;3.00;;;;;21.56;34.75;101787.59;5114217;27;45491;-73
2021/12/11 10:31:41;;;;;;;;;2.75;2.75;;;;;21.57;35.28;101785.78;5111641;27;45542;-73
2021/12/11 10:34:10;;;;;;;;;3.25;3.25;;;;;21.56;35.11;101784.94;5112190;27;46140;-74
2021/12/11 10:36:50;;;;;;;;;5.00;3.25;;;;;21.27;35.08;101726.00;5113495;27;45618;-73
2021/12/11 10:39:16;;;;;;;;;5.00;3.75;;;;;21.57;34.62;101775.19;5115210;27;45485;-74
2021/12/11 10:41:43;;;;;;;;;3.75;3.75;;;;;21.48;34.87;101764.53;5115181;27;45785;-73
2021/12/11 10:44:13;;;;;;;;;3.00;2.25;;;;;21.51;34.89;101758.94;5117101;27;47247;-73
2021/12/11 10:46:45;;;;;;;;;5.50;3.00;;;;;21.57;34.58;101768.06;5105461;27;45375;-73
2021/12/11 10:49:13;;;;;;;;;3.00;3.00;;;;;21.56;34.97;101765.56;5108071;27;45378;-73
2021/12/11 10:51:46;;;;;;;;;2.50;2.50;;;;;21.58;34.86;101777.69;5113104;27;45490;-73
2021/12/11 10:54:14;;;;;;;;;4.00;4.00;;;;;21.58;34.97;101777.69;5102735;27;46594;-73
2021/12/11 10:56:40;;;;;;;;;3.00;3.00;;;;;21.58;34.63;101775.03;5100476;27;45614;-73
2021/12/11 10:59:13;;;;;;;;;3.00;3.00;;;;;21.37;34.92;101743.59;5103402;27;45300;-73
2021/12/11 11:01:44;;;;;;;;;4.75;3.50;;;;;21.59;34.96;101789.94;5103966;27;45673;-73
2021/12/11 11:04:15;;;;;;;;;3.00;3.00;;;;;21.59;34.64;101784.66;5103290;27;47233;-73
2021/12/11 11:06:42;;;;;;;;;5.00;4.25;;;;;21.60;34.31;101786.28;5103902;27;45401;-73
2021/12/11 11:09:09;;;;;;;;;3.75;3.00;;;;;21.60;34.65;101788.94;5083386;27;45596;-73
2021/12/11 11:11:36;;;;;;;;;5.00;4.00;;;;;21.54;34.80;101783.44;5115440;27;45274;-73
2021/12/11 11:14:04;;;;;;;;;5.00;5.00;;;;;21.60;34.61;101788.94;5114397;27;45421;-73
2021/12/11 11:16:31;;;;;;;;;5.00;5.00;;;;;21.58;34.82;101792.72;5105956;27;45676;-73
2021/12/11 11:18:57;;;;;;;;;4.00;3.00;;;;;21.55;34.76;101790.38;5103426;27;45303;-73
2021/12/11 11:21:33;;;;;;;;;3.75;3.00;;;;;21.58;34.49;101803.31;5063671;27;45325;-73
2021/12/11 11:24:00;;;;;;;;;8.50;5.50;;;;;21.60;34.73;101802.19;5032266;28;47214;-74
2021/12/11 11:26:32;;;;;;;;;4.75;2.75;;;;;21.58;34.78;101809.47;5033283;28;45420;-73
2021/12/11 11:28:59;;;;;;;;;4.75;3.00;;;;;21.54;34.88;101794.03;5034138;28;45822;-73
2021/12/11 11:31:34;;;;;;;;;5.00;5.00;;;;;21.61;34.71;101809.16;5030750;27;45459;-73
2021/12/11 11:34:00;;;;;;;;;3.75;3.75;;;;;21.59;35.00;101794.41;5031467;28;47339;-73
2021/12/11 11:36:26;;;;;;;;;6.00;4.50;;;;;21.58;34.39;101793.56;5032002;27;45431;-73
2021/12/11 11:38:56;;;;;;;;;4.00;4.00;;;;;21.52;34.51;101781.78;5031979;28;45466;-73
2021/12/11 11:41:29;;;;;;;;;4.75;4.00;;;;;21.60;35.01;101785.47;5033591;28;45287;-73
2021/12/11 11:43:56;;;;;;;;;4.00;4.00;;;;;21.56;34.68;101786.75;5033182;28;47226;-73
2021/12/11 11:46:24;;;;;;;;;3.50;3.50;;;;;21.54;34.69;101786.09;5031002;27;45355;-73
2021/12/11 11:48:52;;;;;;;;;4.00;4.00;;;;;21.60;34.73;101780.16;5031679;28;45423;-74
2021/12/11 11:51:26;;;;;;;;;3.75;3.00;;;;;21.60;34.32;101786.28;5031861;28;45468;-73
2021/12/11 11:53:53;;;;;;;;;4.00;3.25;;;;;21.60;34.80;101798.69;5015425;28;45390;-73
2021/12/11 11:56:23;;;;;;;;;5.00;4.00;;;;;21.61;34.87;101801.22;5033906;28;45419;-73